Time;durP1;ratioP1;P1;durP2;ratioP2;P2;SDS_P1;SDS_P2;PMS_P1;PMS_P2;Temp;Humidity;BMP_temperature;BMP_pressure;BME280_temperature;BME280_humidity;BME280_pressure;Samples;Min_cycle;Max_cycle;Signal;HPM_P1;HPM_P2
2022/10/11 00:02:16;;;;;;;0.10;0.10;;;;;;;8.07;100.00;97208.38;5024783;28;20052;-75
2022/10/11 00:05:02;;;;;;;0.10;0.10;;;;;;;7.91;100.00;97206.22;5045075;28;20218;-73
2022/10/11 00:07:48;;;;;;;0.10;0.10;;;;;;;7.94;100.00;97205.81;5025811;28;20145;-74
2022/10/11 00:10:34;;;;;;;0.20;0.10;;;;;;;7.97;100.00;97205.38;5037920;28;20095;-75
2022/10/11 00:13:20;;;;;;;0.10;0.10;;;;;;;8.00;100.00;97202.28;5033105;28;20502;-75
2022/10/11 00:16:07;;;;;;;0.10;0.10;;;;;;;7.97;100.00;97212.56;5032683;28;20494;-74
2022/10/11 00:18:53;;;;;;;0.30;0.10;;;;;;;7.66;100.00;97197.34;5033296;28;20476;-73
2022/10/11 00:21:39;;;;;;;0.10;0.10;;;;;;;7.56;100.00;97208.44;5035005;28;20364;-74
2022/10/11 00:24:25;;;;;;;0.10;0.10;;;;;;;7.42;100.00;97214.84;5041685;28;20389;-75
2022/10/11 00:27:11;;;;;;;0.10;0.10;;;;;;;7.37;100.00;97217.31;5036722;28;20326;-74
2022/10/11 00:29:57;;;;;;;0.17;0.10;;;;;;;7.22;100.00;97218.34;5043201;28;20052;-73
2022/10/11 00:32:42;;;;;;;0.10;0.10;;;;;;;7.22;100.00;97238.84;5044317;28;20048;-75
2022/10/11 00:35:28;;;;;;;0.10;0.10;;;;;;;7.06;100.00;97229.44;5033978;28;20037;-75
2022/10/11 00:38:15;;;;;;;0.10;0.10;;;;;;;6.96;100.00;97235.19;5026321;28;20044;-72
2022/10/11 00:41:01;;;;;;;0.15;0.10;;;;;;;7.02;100.00;97246.06;5041629;28;20742;-73
2022/10/11 00:43:47;;;;;;;0.13;0.13;;;;;;;6.86;100.00;97237.47;5024485;28;20173;-74
2022/10/11 00:46:33;;;;;;;0.10;0.10;;;;;;;6.79;100.00;97239.31;5030024;28;20041;-73
2022/10/11 00:49:41;;;;;;;0.10;0.10;;;;;;;6.71;100.00;97252.81;5037074;28;20045;-75
2022/10/11 00:52:35;;;;;;;0.10;0.10;;;;;;;6.63;100.00;97248.53;5041412;28;20045;-74
2022/10/11 00:55:25;;;;;;;0.10;0.10;;;;;;;6.47;100.00;97234.81;5037297;28;20051;-75
2022/10/11 00:58:12;;;;;;;0.10;0.10;;;;;;;6.50;100.00;97256.47;5042753;28;20036;-73
2022/10/11 01:00:58;;;;;;;0.10;0.10;;;;;;;6.47;100.00;97256.91;5032572;28;20109;-74
2022/10/11 01:03:44;;;;;;;0.10;0.10;;;;;;;6.39;100.00;97255.25;5039402;28;20057;-75
2022/10/11 01:06:29;;;;;;;0.10;0.10;;;;;;;6.39;100.00;97257.09;5032822;28;20086;-75
2022/10/11 01:09:17;;;;;;;0.10;0.10;;;;;;;6.32;100.00;97258.94;5042310;28;20541;-73
2022/10/11 01:12:11;;;;;;;0.10;0.10;;;;;;;6.36;100.00;97250.31;5045263;28;20785;-73
2022/10/11 01:15:00;;;;;;;0.00;0.00;;;;;;;6.28;100.00;97253.19;5045522;28;20049;-74
2022/10/11 01:17:49;;;;;;;0.20;0.13;;;;;;;6.21;100.00;97257.66;5047398;28;20314;-73
2022/10/11 01:20:56;;;;;;;0.10;0.10;;;;;;;6.16;100.00;97256.66;5044502;28;20048;-73
2022/10/11 01:23:47;;;;;;;0.10;0.10;;;;;;;6.17;100.00;97256.44;5045031;28;20087;-75
2022/10/11 01:26:39;;;;;;;0.10;0.10;;;;;;;6.18;100.00;97267.88;5030444;28;20476;-71
2022/10/11 01:29:34;;;;;;;0.10;0.10;;;;;;;6.09;100.00;97265.41;5034198;28;20561;-73
2022/10/11 01:32:33;;;;;;;0.10;0.10;;;;;;;6.07;100.00;97258.63;5044671;28;20036;-73
2022/10/11 01:36:00;;;;;;;0.10;0.10;;;;;;;6.10;100.00;97263.56;5040768;28;20281;-74
2022/10/11 01:38:51;;;;;;;0.10;0.10;;;;;;;6.09;100.00;97269.91;5037609;28;20539;-72
2022/10/11 01:41:46;;;;;;;0.10;0.10;;;;;;;6.07;100.00;97266.59;5044712;28;20045;-73
2022/10/11 01:44:34;;;;;;;0.10;0.10;;;;;;;6.00;100.00;97271.94;5041354;28;20317;-72
2022/10/11 01:47:22;;;;;;;0.10;0.10;;;;;;;6.01;100.00;97278.06;5037884;28;20524;-74
2022/10/11 01:50:30;;;;;;;0.10;0.10;;;;;;;6.02;100.00;97277.84;5030788;28;20122;-72
2022/10/11 01:53:40;;;;;;;0.10;0.10;;;;;;;6.05;100.00;97284.59;5048262;28;20036;-73
2022/10/11 01:56:44;;;;;;;0.20;0.13;;;;;;;6.06;100.00;97273.75;5036879;28;20037;-74
2022/10/11 02:00:00;;;;;;;0.17;0.10;;;;;;;6.04;100.00;97275.81;5038931;28;20412;-74
2022/10/11 02:03:18;;;;;;;0.10;0.10;;;;;;;5.80;100.00;97279.78;5041377;28;20479;-72
2022/10/11 02:06:18;;;;;;;0.10;0.10;;;;;;;5.83;100.00;97276.72;5043253;28;20120;-74
2022/10/11 02:09:13;;;;;;;0.10;0.10;;;;;;;5.85;100.00;97277.38;5039051;28;20087;-73
2022/10/11 02:12:09;;;;;;;0.10;0.10;;;;;;;5.85;100.00;97274.72;5045065;28;20489;-71
2022/10/11 02:14:56;;;;;;;0.10;0.10;;;;;;;5.75;100.00;97284.03;5033510;28;20040;-72
2022/10/11 02:17:48;;;;;;;0.10;0.10;;;;;;;5.65;100.00;97287.06;5035325;28;20288;-73
2022/10/11 02:20:38;;;;;;;0.13;0.10;;;;;;;5.47;100.00;97278.81;5037036;28;20402;-72
2022/10/11 02:23:35;;;;;;;0.10;0.10;;;;;;;5.16;100.00;97285.38;5039547;28;20120;-73
2022/10/11 02:26:23;;;;;;;0.10;0.10;;;;;;;5.22;100.00;97292.56;5042029;28;20457;-73
2022/10/11 02:29:13;;;;;;;0.10;0.10;;;;;;;5.28;100.00;97294.41;5033382;28;20043;-73
2022/10/11 02:32:00;;;;;;;0.10;0.10;;;;;;;5.35;100.00;97294.47;5033844;28;20238;-73
2022/10/11 02:34:51;;;;;;;0.10;0.10;;;;;;;5.36;100.00;97300.59;5029198;28;20118;-72
2022/10/11 02:37:42;;;;;;;0.10;0.10;;;;;;;5.18;100.00;97295.78;5037646;28;20511;-73
2022/10/11 02:40:32;;;;;;;0.10;0.10;;;;;;;5.10;100.00;97294.09;5041761;28;20499;-73
2022/10/11 02:43:52;;;;;;;0.10;0.10;;;;;;;5.03;100.00;97299.34;5034774;28;20040;-72
2022/10/11 02:46:38;;;;;;;0.10;0.10;;;;;;;4.95;100.00;97298.66;5004228;28;20705;-73
2022/10/11 02:49:28;;;;;;;0.10;0.10;;;;;;;4.87;100.00;97301.47;5032717;28;20037;-74
2022/10/11 02:52:14;;;;;;;0.10;0.10;;;;;;;4.93;100.00;97306.00;5033670;28;20037;-72
2022/10/11 02:55:00;;;;;;;0.10;0.10;;;;;;;4.69;100.00;97304.59;5042029;28;20064;-73
2022/10/11 02:57:46;;;;;;;0.10;0.10;;;;;;;4.59;100.00;97314.66;5036742;28;20344;-72
2022/10/11 03:00:32;;;;;;;0.10;0.10;;;;;;;4.47;100.00;97317.84;5039789;28;20500;-73
2022/10/11 03:03:18;;;;;;;0.10;0.10;;;;;;;4.42;100.00;97327.34;5036957;28;20551;-71
2022/10/11 03:06:04;;;;;;;0.10;0.10;;;;;;;4.51;100.00;97317.44;5041337;28;20044;-73
2022/10/11 03:08:50;;;;;;;0.10;0.10;;;;;;;4.66;100.00;97315.56;5035508;28;20045;-73
2022/10/11 03:11:35;;;;;;;0.10;0.10;;;;;;;4.71;100.00;97323.78;5046064;28;20080;-72
2022/10/11 03:14:23;;;;;;;0.10;0.10;;;;;;;4.77;100.00;97324.84;5036625;28;20646;-74
2022/10/11 03:17:08;;;;;;;0.10;0.10;;;;;;;4.66;100.00;97316.38;5020384;28;20517;-74
2022/10/11 03:19:54;;;;;;;0.10;0.10;;;;;;;4.66;100.00;97320.84;5043081;28;20037;-74
2022/10/11 03:22:40;;;;;;;0.10;0.10;;;;;;;4.67;100.00;97326.00;5043798;28;20203;-73
2022/10/11 03:25:27;;;;;;;0.10;0.10;;;;;;;4.62;100.00;97331.03;5026150;28;20048;-73
2022/10/11 03:28:13;;;;;;;0.10;0.10;;;;;;;4.48;100.00;97329.25;5025330;28;20056;-73
2022/10/11 03:30:58;;;;;;;0.10;0.10;;;;;;;4.34;100.00;97332.78;5026157;28;20492;-74
2022/10/11 03:33:45;;;;;;;0.10;0.10;;;;;;;4.41;100.00;97331.84;5041683;28;20733;-73
2022/10/11 03:36:31;;;;;;;0.10;0.10;;;;;;;4.45;100.00;97334.94;5034523;28;20037;-75
2022/10/11 03:39:16;;;;;;;0.10;0.10;;;;;;;4.32;100.00;97332.16;5035763;28;20051;-73
2022/10/11 03:42:02;;;;;;;0.10;0.10;;;;;;;4.30;100.00;97345.59;5029842;28;20033;-74
2022/10/11 03:44:50;;;;;;;0.10;0.10;;;;;;;4.34;100.00;97340.72;5040425;28;20645;-74
2022/10/11 03:47:40;;;;;;;0.10;0.10;;;;;;;4.39;100.00;97341.00;5042604;28;20479;-74
2022/10/11 03:50:25;;;;;;;0.10;0.10;;;;;;;4.41;100.00;97353.03;5042672;28;20040;-74
2022/10/11 03:53:13;;;;;;;0.10;0.10;;;;;;;4.33;100.00;97347.84;5038586;28;20532;-74
2022/10/11 03:55:59;;;;;;;0.10;0.10;;;;;;;4.40;100.00;97353.22;5028476;28;20052;-73
2022/10/11 03:58:45;;;;;;;0.10;0.10;;;;;;;4.40;100.00;97350.59;5036708;28;20097;-74
2022/10/11 04:01:36;;;;;;;0.10;0.10;;;;;;;4.40;100.00;97347.94;5036061;28;20130;-74
2022/10/11 04:04:22;;;;;;;0.20;0.20;;;;;;;4.31;100.00;97349.88;5036592;28;20045;-73
2022/10/11 04:07:08;;;;;;;0.20;0.20;;;;;;;4.29;100.00;97345.78;5047000;28;20064;-73
2022/10/11 04:09:53;;;;;;;0.10;0.10;;;;;;;4.32;100.00;97353.34;5045405;28;20063;-74
2022/10/11 04:12:39;;;;;;;0.17;0.13;;;;;;;4.15;100.00;97358.06;5039424;28;21029;-73
2022/10/11 04:15:28;;;;;;;0.10;0.10;;;;;;;4.10;100.00;97357.78;5026961;28;20532;-74
2022/10/11 04:18:14;;;;;;;0.15;0.15;;;;;;;3.95;100.00;97368.41;5045959;28;20072;-74
2022/10/11 04:21:00;;;;;;;0.15;0.10;;;;;;;3.99;100.00;97368.88;5038937;28;20052;-73
2022/10/11 04:23:45;;;;;;;0.10;0.10;;;;;;;3.92;100.00;97372.25;5044030;28;20036;-73
2022/10/11 04:26:31;;;;;;;0.10;0.10;;;;;;;3.87;100.00;97374.59;5034021;28;20557;-74
2022/10/11 04:29:17;;;;;;;0.10;0.10;;;;;;;3.67;100.00;97368.25;5028908;28;20033;-73
2022/10/11 04:32:03;;;;;;;0.10;0.10;;;;;;;3.64;100.00;97382.66;5035209;28;20059;-72
2022/10/11 04:34:50;;;;;;;0.10;0.10;;;;;;;3.58;100.00;97370.16;5039658;28;20558;-74
2022/10/11 04:37:36;;;;;;;0.28;0.20;;;;;;;3.54;100.00;97379.47;5038619;28;20345;-73
2022/10/11 04:40:21;;;;;;;0.20;0.20;;;;;;;3.51;100.00;97385.13;5044777;28;20377;-75
2022/10/11 04:43:07;;;;;;;0.10;0.10;;;;;;;3.61;100.00;97384.84;5036557;28;20392;-73
2022/10/11 04:45:53;;;;;;;0.10;0.10;;;;;;;3.66;100.00;97385.13;5035871;28;20276;-73
2022/10/11 04:48:39;;;;;;;0.20;0.20;;;;;;;3.61;100.00;97384.84;5047520;28;20246;-75
2022/10/11 04:51:26;;;;;;;0.32;0.20;;;;;;;3.72;100.00;97391.50;5033789;28;20439;-75
2022/10/11 04:54:12;;;;;;;0.10;0.10;;;;;;;3.84;100.00;97390.88;5025595;28;20045;-73
2022/10/11 04:56:58;;;;;;;0.50;0.20;;;;;;;3.92;100.00;97387.31;5043125;28;20417;-74
2022/10/11 04:59:43;;;;;;;0.10;0.10;;;;;;;3.97;100.00;97379.66;5037482;28;20249;-75
2022/10/11 05:02:29;;;;;;;0.20;0.20;;;;;;;4.17;100.00;97378.03;5047334;28;20044;-75
2022/10/11 05:05:16;;;;;;;0.20;0.20;;;;;;;4.32;100.00;97377.19;5048698;28;20101;-73
2022/10/11 05:08:02;;;;;;;0.10;0.10;;;;;;;4.63;100.00;97377.75;5047889;28;20228;-74
2022/10/11 05:10:58;;;;;;;0.20;0.20;;;;;;;4.80;100.00;97380.16;5041930;28;20552;-73
2022/10/11 05:13:45;;;;;;;0.20;0.20;;;;;;;4.98;100.00;97377.84;5032952;28;20040;-73
2022/10/11 05:16:31;;;;;;;0.13;0.13;;;;;;;5.12;100.00;97387.56;5029892;28;20570;-75
2022/10/11 05:19:16;;;;;;;0.50;0.30;;;;;;;5.28;100.00;97394.44;5038478;28;20033;-72
2022/10/11 05:22:02;;;;;;;0.35;0.22;;;;;;;5.38;100.00;97388.81;5033484;28;20507;-72
2022/10/11 05:24:48;;;;;;;2.15;0.75;;;;;;;5.61;100.00;97394.72;5049189;28;20379;-72
2022/10/11 05:27:34;;;;;;;2.63;0.95;;;;;;;5.75;100.00;97401.72;5046832;28;20280;-74
2022/10/11 05:30:20;;;;;;;2.58;0.85;;;;;;;5.90;100.00;97396.28;5047255;28;20449;-73
2022/10/11 05:33:05;;;;;;;4.35;1.30;;;;;;;5.92;100.00;97398.81;5041846;28;20087;-73
2022/10/11 05:35:51;;;;;;;2.95;0.98;;;;;;;6.04;100.00;97400.69;5041688;28;20045;-73
2022/10/11 05:38:38;;;;;;;9.05;3.50;;;;;;;6.17;100.00;97402.59;5038860;28;20041;-73
2022/10/11 05:41:24;;;;;;;4.38;1.67;;;;;;;6.27;100.00;97405.72;5038096;28;20522;-74
2022/10/11 05:44:09;;;;;;;6.65;2.72;;;;;;;6.18;100.00;97408.75;5028423;28;20037;-74
2022/10/11 05:46:55;;;;;;;9.07;3.10;;;;;;;6.21;100.00;97417.13;5048487;28;20032;-73
2022/10/11 05:49:41;;;;;;;8.05;3.50;;;;;;;6.26;100.00;97413.88;5049457;28;20101;-73
2022/10/11 05:52:27;;;;;;;6.10;2.33;;;;;;;6.23;100.00;97417.78;5034427;28;20053;-74
2022/10/11 05:55:13;;;;;;;6.07;2.05;;;;;;;6.05;100.00;97428.91;5037653;28;20033;-73
2022/10/11 05:57:58;;;;;;;4.00;1.48;;;;;;;5.85;100.00;97439.41;5048563;28;20128;-73
2022/10/11 06:00:44;;;;;;;10.18;3.75;;;;;;;5.82;100.00;97438.94;5043889;28;20628;-74
2022/10/11 06:03:31;;;;;;;4.88;2.00;;;;;;;5.58;100.00;97437.56;5045275;28;20045;-74
2022/10/11 06:06:17;;;;;;;2.97;1.20;;;;;;;5.41;100.00;97447.63;5034402;28;20143;-73
2022/10/11 06:09:03;;;;;;;5.78;2.03;;;;;;;5.26;100.00;97453.03;5025282;28;20042;-73
2022/10/11 06:11:49;;;;;;;4.07;1.25;;;;;;;5.07;100.00;97455.50;5039839;28;20480;-72
2022/10/11 06:14:35;;;;;;;4.10;1.38;;;;;;;4.88;100.00;97462.25;5042121;28;20041;-73
2022/10/11 06:17:22;;;;;;;1.70;0.63;;;;;;;4.91;100.00;97467.19;5030167;28;20046;-74
2022/10/11 06:20:08;;;;;;;1.17;0.40;;;;;;;4.62;100.00;97457.47;5047216;28;20037;-73
2022/10/11 06:22:54;;;;;;;0.10;0.10;;;;;;;4.54;100.00;97463.69;5035190;28;20040;-73
2022/10/11 06:25:40;;;;;;;0.10;0.10;;;;;;;4.42;100.00;97460.69;5046724;28;20443;-74
2022/10/11 06:28:27;;;;;;;0.10;0.10;;;;;;;4.26;100.00;97462.72;5044693;28;21146;-73
2022/10/11 06:31:13;;;;;;;0.10;0.10;;;;;;;4.07;100.00;97469.41;5043541;28;20047;-74
2022/10/11 06:33:59;;;;;;;0.10;0.10;;;;;;;3.99;100.00;97475.63;5044798;28;20325;-74
2022/10/11 06:36:45;;;;;;;0.10;0.10;;;;;;;4.06;100.00;97478.38;5044397;28;20333;-72
2022/10/11 06:39:31;;;;;;;0.10;0.10;;;;;;;3.94;100.00;97491.22;5039505;28;20047;-75
2022/10/11 06:42:17;;;;;;;0.15;0.15;;;;;;;4.03;100.00;97484.84;5043626;28;20045;-73
2022/10/11 06:45:03;;;;;;;0.15;0.15;;;;;;;4.15;100.00;97491.34;5036185;28;20040;-74
2022/10/11 06:47:49;;;;;;;0.10;0.10;;;;;;;4.17;100.00;97497.25;5040377;28;20036;-73
2022/10/11 06:50:37;;;;;;;0.10;0.10;;;;;;;4.39;100.00;97500.81;5031638;28;20113;-74
2022/10/11 06:53:23;;;;;;;0.10;0.10;;;;;;;4.46;100.00;97499.09;5038380;28;20119;-73
2022/10/11 06:56:11;;;;;;;0.20;0.20;;;;;;;4.58;100.00;97501.25;5040887;28;20519;-72
2022/10/11 06:58:58;;;;;;;0.10;0.10;;;;;;;4.68;100.00;97507.94;5049235;28;20111;-73
2022/10/11 07:01:44;;;;;;;0.10;0.10;;;;;;;4.86;100.00;97515.47;5042393;28;20511;-73
2022/10/11 07:04:30;;;;;;;0.10;0.10;;;;;;;4.96;100.00;97513.34;5037844;28;20033;-74
2022/10/11 07:07:15;;;;;;;0.10;0.10;;;;;;;5.01;100.00;97518.91;5037667;28;20083;-74
2022/10/11 07:10:01;;;;;;;0.10;0.10;;;;;;;5.13;100.00;97511.25;5032259;28;20041;-74
2022/10/11 07:12:47;;;;;;;0.20;0.20;;;;;;;5.19;100.00;97513.16;5042152;28;20402;-75
2022/10/11 07:15:36;;;;;;;0.10;0.10;;;;;;;5.25;100.00;97512.41;5041930;28;20047;-72
2022/10/11 07:18:22;;;;;;;0.10;0.10;;;;;;;5.28;100.00;97505.91;5023482;28;20128;-74
2022/10/11 07:21:12;;;;;;;0.10;0.10;;;;;;;5.22;100.00;97523.44;5018001;28;20566;-72
2022/10/11 07:23:59;;;;;;;0.10;0.10;;;;;;;5.43;100.00;97529.75;5044629;28;20041;-74
2022/10/11 07:26:45;;;;;;;0.20;0.20;;;;;;;5.57;100.00;97532.31;5037869;28;20033;-73
2022/10/11 07:29:31;;;;;;;0.25;0.20;;;;;;;5.65;100.00;97535.88;5031525;28;20076;-75
2022/10/11 07:32:17;;;;;;;0.17;0.17;;;;;;;5.67;100.00;97539.97;5040113;28;20060;-72
2022/10/11 07:35:03;;;;;;;0.20;0.10;;;;;;;5.75;100.00;97537.16;5044120;28;20068;-73
2022/10/11 07:37:49;;;;;;;0.10;0.10;;;;;;;5.84;100.00;97537.88;5046036;28;20048;-72
2022/10/11 07:40:41;;;;;;;0.10;0.10;;;;;;;5.94;100.00;97546.38;5035545;28;20483;-72
2022/10/11 07:43:27;;;;;;;0.10;0.10;;;;;;;6.04;100.00;97536.22;5034972;28;20489;-73
2022/10/11 07:46:13;;;;;;;0.10;0.10;;;;;;;6.15;100.00;97534.88;5041492;28;20514;-74
2022/10/11 07:48:59;;;;;;;0.10;0.10;;;;;;;6.20;100.00;97537.75;5039196;28;20183;-73
2022/10/11 07:51:44;;;;;;;0.10;0.10;;;;;;;6.25;100.00;97538.00;5035295;28;20041;-73
2022/10/11 07:54:31;;;;;;;0.10;0.10;;;;;;;6.35;100.00;97543.78;5002448;28;20496;-75
2022/10/11 07:57:17;;;;;;;0.10;0.10;;;;;;;6.42;100.00;97531.34;5017761;28;20046;-73
2022/10/11 08:00:04;;;;;;;0.10;0.10;;;;;;;6.51;100.00;97544.47;5021433;28;20596;-73
2022/10/11 08:02:57;;;;;;;0.10;0.10;;;;;;;6.56;100.00;97536.75;5027170;28;20043;-74
2022/10/11 08:05:43;;;;;;;0.10;0.10;;;;;;;6.65;100.00;97540.88;5026642;28;20053;-73
2022/10/11 08:08:30;;;;;;;0.10;0.10;;;;;;;6.79;100.00;97547.91;5019643;28;20325;-73
2022/10/11 08:11:24;;;;;;;0.15;0.10;;;;;;;6.95;100.00;97541.44;5013078;28;20909;-73
2022/10/11 08:14:11;;;;;;;0.10;0.10;;;;;;;7.10;100.00;97543.94;5018301;28;20533;-73
2022/10/11 08:17:01;;;;;;;0.20;0.20;;;;;;;7.28;100.00;97544.19;5024293;28;20305;-74
2022/10/11 08:19:47;;;;;;;0.13;0.10;;;;;;;7.48;100.00;97542.41;5020157;28;20261;-75
2022/10/11 08:22:33;;;;;;;0.22;0.20;;;;;;;7.67;100.00;97542.63;5024167;28;20041;-74
2022/10/11 08:25:19;;;;;;;0.20;0.20;;;;;;;7.81;100.00;97537.09;5019780;28;20053;-74
2022/10/11 08:28:05;;;;;;;0.20;0.20;;;;;;;7.93;100.00;97536.47;5026138;28;20041;-73
2022/10/11 08:30:53;;;;;;;0.20;0.20;;;;;;;8.08;100.00;97537.91;5023460;28;20385;-75
2022/10/11 08:33:39;;;;;;;0.10;0.10;;;;;;;8.20;100.00;97542.63;5022078;28;20051;-74
2022/10/11 08:36:25;;;;;;;0.20;0.20;;;;;;;8.35;100.00;97532.59;5029004;28;20406;-75
2022/10/11 08:39:10;;;;;;;0.20;0.20;;;;;;;8.46;100.00;97533.78;5022567;28;20132;-74
2022/10/11 08:42:02;;;;;;;0.10;0.10;;;;;;;8.61;100.00;97543.19;5030499;28;20040;-74
2022/10/11 08:44:53;;;;;;;0.10;0.10;;;;;;;8.72;100.00;97544.41;5023054;28;20049;-74
2022/10/11 08:47:41;;;;;;;;;;;;;;;8.72;100.00;97547.06;5032868;28;20037;-74
2022/10/11 08:50:29;;;;;;;0.10;0.10;;;;;;;8.94;100.00;97542.25;5025842;28;20299;-75
2022/10/11 08:53:23;;;;;;;0.10;0.10;;;;;;;9.05;100.00;97546.94;5021955;28;20037;-73
2022/10/11 08:56:12;;;;;;;0.10;0.10;;;;;;;8.90;100.00;97547.19;5014866;28;20041;-73
2022/10/11 08:59:08;;;;;;;0.20;0.20;;;;;;;9.07;100.00;97546.72;5026223;28;20049;-74
2022/10/11 09:02:20;;;;;;;0.20;0.20;;;;;;;9.19;100.00;97534.34;5027758;28;20398;-75
2022/10/11 09:05:12;;;;;;;0.10;0.10;;;;;;;9.45;100.00;97541.38;5033005;28;20509;-75
2022/10/11 09:08:10;;;;;;;0.10;0.10;;;;;;;9.68;100.00;97533.63;5026776;28;20373;-73
2022/10/11 09:11:04;;;;;;;0.20;0.20;;;;;;;9.90;100.00;97536.75;5029488;28;20041;-73
2022/10/11 09:14:23;;;;;;;0.10;0.10;;;;;;;9.97;100.00;97534.03;5020949;28;20041;-74
2022/10/11 09:17:35;;;;;;;0.10;0.10;;;;;;;10.19;100.00;97529.09;5020126;28;20041;-74
2022/10/11 09:20:37;;;;;;;0.15;0.13;;;;;;;10.18;100.00;97536.31;5015102;28;20397;-76
2022/10/11 09:23:48;;;;;;;0.22;0.20;;;;;;;10.49;100.00;97540.78;5020353;28;20444;-74
2022/10/11 09:27:18;;;;;;;0.10;0.10;;;;;;;10.68;100.00;97530.09;5006492;28;20037;-74
2022/10/11 09:30:15;;;;;;;0.13;0.13;;;;;;;10.77;100.00;97532.25;5027167;28;20123;-74
2022/10/11 09:33:07;;;;;;;0.10;0.10;;;;;;;10.84;100.00;97530.31;5021460;28;20164;-75
2022/10/11 09:35:56;;;;;;;0.20;0.20;;;;;;;11.03;100.00;97535.63;5023019;28;20602;-73
2022/10/11 09:39:13;;;;;;;0.20;0.20;;;;;;;11.14;100.00;97525.00;5027933;28;20628;-76
2022/10/11 09:42:07;;;;;;;0.20;0.20;;;;;;;11.47;100.00;97518.38;5031355;28;20080;-74
2022/10/11 09:44:56;;;;;;;;;;;;;;;11.98;100.00;97525.88;5024761;28;20045;-76
2022/10/11 09:47:41;;;;;;;0.20;0.20;;;;;;;12.50;100.00;97520.63;5031779;28;19921;-74
2022/10/11 09:50:30;;;;;;;0.20;0.20;;;;;;;12.97;100.00;97519.72;5024221;28;20497;-75
2022/10/11 09:53:16;;;;;;;0.10;0.10;;;;;;;12.46;100.00;97515.97;5034647;28;20429;-74
2022/10/11 09:56:03;;;;;;;0.20;0.20;;;;;;;14.52;98.76;97507.66;5019187;28;20068;-73
2022/10/11 09:59:26;;;;;;;0.20;0.20;;;;;;;18.16;62.29;97503.47;5037412;28;20794;-74
2022/10/11 10:02:11;;;;;;;0.20;0.20;;;;;;;20.79;48.08;97499.63;5024431;28;20042;-74
2022/10/11 10:05:09;;;;;;;0.20;0.20;;;;;;;22.17;41.28;97495.84;5035637;28;20514;-74
2022/10/11 10:08:30;;;;;;;0.20;0.20;;;;;;;23.23;35.60;97491.47;5025083;28;20033;-74
2022/10/11 10:11:35;;;;;;;0.10;0.10;;;;;;;22.66;36.51;97496.38;5025681;28;20095;-76
2022/10/11 10:14:28;;;;;;;0.10;0.10;;;;;;;24.56;34.25;97491.94;5032502;28;20041;-75
2022/10/11 10:17:16;;;;;;;0.20;0.20;;;;;;;25.84;32.14;97492.69;5015611;28;20035;-75
2022/10/11 10:20:04;;;;;;;0.20;0.20;;;;;;;27.12;31.55;97486.44;5028991;28;20649;-74
2022/10/11 10:22:51;;;;;;;0.20;0.20;;;;;;;27.47;31.07;97476.84;5028200;28;20315;-75
2022/10/11 10:25:39;;;;;;;0.10;0.10;;;;;;;27.81;28.87;97474.22;5029536;28;20065;-74
2022/10/11 10:28:26;;;;;;;0.20;0.20;;;;;;;26.18;31.81;97482.81;5034400;28;20263;-75
2022/10/11 10:31:24;;;;;;;0.10;0.10;;;;;;;21.56;37.28;97485.09;5025458;28;20044;-76
2022/10/11 10:34:38;;;;;;;0.10;0.10;;;;;;;25.33;30.38;97482.41;5033379;28;20852;-75
2022/10/11 10:37:33;;;;;;;0.10;0.10;;;;;;;27.27;29.75;97472.13;5036230;28;20047;-74
2022/10/11 10:40:42;;;;;;;0.20;0.20;;;;;;;29.31;25.38;97463.66;4685690;28;10000250;-75
2022/10/11 10:43:33;;;;;;;0.20;0.20;;;;;;;29.63;27.10;97470.19;5017030;28;20525;-75
2022/10/11 10:46:36;;;;;;;0.10;0.10;;;;;;;31.00;24.19;97459.78;5016014;28;20130;-76
2022/10/11 10:49:28;;;;;;;0.10;0.10;;;;;;;31.78;24.67;97461.63;4991193;28;20373;-76
2022/10/11 10:52:19;;;;;;;0.10;0.10;;;;;;;31.63;23.22;97459.69;5010572;28;20051;-76
2022/10/11 10:55:24;;;;;;;0.20;0.20;;;;;;;32.55;21.50;97451.69;5021970;28;20037;-75
2022/10/11 10:58:19;;;;;;;0.10;0.10;;;;;;;33.68;20.98;97454.69;5020997;28;20597;-76
2022/10/11 11:01:15;;;;;;;0.10;0.10;;;;;;;30.70;22.19;97457.47;5018126;28;20076;-75
2022/10/11 11:04:09;;;;;;;0.10;0.10;;;;;;;33.63;23.22;97457.78;5003833;28;20916;-75
2022/10/11 11:07:23;;;;;;;0.10;0.10;;;;;;;34.47;19.31;97451.69;5013033;28;20653;-75
2022/10/11 11:10:20;;;;;;;0.10;0.10;;;;;;;34.12;21.09;97445.75;5023254;28;20274;-75
2022/10/11 11:13:27;;;;;;;0.10;0.10;;;;;;;35.03;18.75;97435.97;5023568;28;20279;-77
2022/10/11 11:16:19;;;;;;;0.10;0.10;;;;;;;33.42;22.36;97442.44;5025098;28;20450;-77
2022/10/11 11:19:36;;;;;;;0.10;0.10;;;;;;;31.50;20.70;97439.63;4994427;28;20087;-75
2022/10/11 11:22:58;;;;;;;0.10;0.10;;;;;;;34.46;19.50;97444.56;5023441;28;20090;-76
2022/10/11 11:26:03;;;;;;;0.10;0.10;;;;;;;35.54;18.71;97432.34;5028012;28;20049;-77
2022/10/11 11:29:01;;;;;;;0.10;0.10;;;;;;;35.79;19.75;97435.25;5026755;28;20301;-74
2022/10/11 11:32:44;;;;;;;0.10;0.10;;;;;;;33.83;19.79;97445.38;5028595;28;20180;-76
2022/10/11 11:35:41;;;;;;;0.10;0.10;;;;;;;36.06;18.47;97422.66;4969187;28;20782;-75
2022/10/11 11:38:52;;;;;;;0.10;0.10;;;;;;;36.50;17.17;97421.63;4984982;28;20315;-77
2022/10/11 11:41:43;;;;;;;0.10;0.10;;;;;;;33.86;19.06;97427.97;5026191;28;20488;-75
2022/10/11 11:44:40;;;;;;;0.10;0.10;;;;;;;33.45;21.05;97427.81;5025628;28;20041;-78
2022/10/11 11:47:36;;;;;;;0.15;0.15;;;;;;;34.35;18.28;97426.97;5026272;28;20551;-77
2022/10/11 11:50:25;;;;;;;0.10;0.10;;;;;;;36.38;18.79;97416.41;5025830;28;20045;-74
2022/10/11 11:53:21;;;;;;;0.08;0.08;;;;;;;33.79;18.28;97420.34;5026222;28;20049;-77
2022/10/11 11:56:37;;;;;;;0.10;0.10;;;;;;;36.04;17.03;97410.34;5025366;28;20759;-75
2022/10/11 11:59:36;;;;;;;0.10;0.10;;;;;;;37.30;16.60;97413.63;5024538;28;20586;-75
2022/10/11 12:02:32;;;;;;;0.10;0.10;;;;;;;38.14;17.05;97415.78;5024952;28;20152;-75
2022/10/11 12:05:22;;;;;;;0.10;0.10;;;;;;;37.79;17.07;97406.38;5028128;28;20523;-77
2022/10/11 12:08:26;;;;;;;0.10;0.10;;;;;;;38.40;14.71;97408.88;5030007;28;20548;-75
2022/10/11 12:11:25;;;;;;;0.10;0.10;;;;;;;38.16;14.58;97405.78;5028745;28;20045;-77
2022/10/11 12:14:23;;;;;;;0.10;0.10;;;;;;;39.03;15.87;97403.22;5028464;28;20036;-77
2022/10/11 12:17:14;;;;;;;0.10;0.10;;;;;;;39.74;15.09;97402.50;5028136;28;20120;-74
2022/10/11 12:20:08;;;;;;;0.10;0.10;;;;;;;39.74;15.78;97400.50;5029453;28;20045;-75
2022/10/11 12:22:58;;;;;;;0.10;0.10;;;;;;;40.06;15.58;97394.50;5025118;28;20103;-76
2022/10/11 12:25:45;;;;;;;0.10;0.10;;;;;;;40.62;14.91;97402.50;5027368;28;20099;-78
2022/10/11 12:28:38;;;;;;;0.10;0.10;;;;;;;40.85;13.29;97399.72;5023817;28;20144;-76
2022/10/11 12:31:27;;;;;;;0.10;0.10;;;;;;;40.49;14.22;97391.13;5027485;28;20053;-77
2022/10/11 12:34:35;;;;;;;0.10;0.10;;;;;;;40.01;14.28;97396.97;5027965;28;20052;-78
2022/10/11 12:37:23;;;;;;;0.10;0.10;;;;;;;40.29;14.33;97393.78;5027131;28;20036;-76
2022/10/11 12:40:32;;;;;;;0.00;0.00;;;;;;;35.13;15.55;97391.53;5028413;28;20045;-76
2022/10/11 12:43:18;;;;;;;0.10;0.10;;;;;;;37.08;16.80;97386.97;5027344;28;20230;-78
2022/10/11 12:46:29;;;;;;;0.10;0.10;;;;;;;34.74;16.74;97391.22;5028043;28;20045;-76
2022/10/11 12:49:36;;;;;;;0.13;0.13;;;;;;;36.62;16.28;97382.19;5024922;28;20034;-78
2022/10/11 12:52:34;;;;;;;0.10;0.10;;;;;;;34.80;16.41;97381.34;5027177;28;20504;-76
2022/10/11 12:55:36;;;;;;;0.10;0.10;;;;;;;34.34;18.76;97383.69;5025613;28;20036;-77
2022/10/11 12:58:28;;;;;;;0.10;0.10;;;;;;;35.59;16.37;97377.13;5025732;28;20037;-75
2022/10/11 13:01:16;;;;;;;0.10;0.10;;;;;;;37.01;14.38;97370.25;5027430;28;20057;-78
2022/10/11 13:04:06;;;;;;;0.00;0.00;;;;;;;38.56;15.33;97372.81;5027835;28;20059;-75
2022/10/11 13:06:55;;;;;;;0.10;0.10;;;;;;;38.09;14.36;97366.72;5028712;28;20462;-77
2022/10/11 13:09:42;;;;;;;0.10;0.10;;;;;;;36.87;15.59;97361.91;5031324;28;20043;-76
2022/10/11 13:12:41;;;;;;;0.10;0.10;;;;;;;34.38;16.75;97372.63;5028850;28;20044;-77
2022/10/11 13:15:27;;;;;;;0.10;0.10;;;;;;;35.71;16.36;97368.41;5029513;28;20084;-75
2022/10/11 13:18:16;;;;;;;0.10;0.10;;;;;;;33.56;18.62;97368.94;5027235;28;20486;-77
2022/10/11 13:21:14;;;;;;;0.10;0.10;;;;;;;34.23;17.19;97364.13;5029768;28;20041;-75
2022/10/11 13:24:06;;;;;;;0.30;0.20;;;;;;;33.68;18.12;97363.13;5035822;28;20036;-74
2022/10/11 13:26:55;;;;;;;0.00;0.00;;;;;;;30.10;19.74;97362.78;5038704;28;20548;-76
2022/10/11 13:29:45;;;;;;;0.10;0.10;;;;;;;31.55;19.53;97367.47;5035884;28;20045;-75